TimeCDT,TemperatureF,Dew PointF,Humidity,Sea Level PressureIn,VisibilityMPH,Wind Direction,Wind SpeedMPH,Gust SpeedMPH,PrecipitationIn,Events,Conditions,WindDirDegrees,DateUTC
12:56 AM,43.0,36.0,76,29.75,-9999.0,WSW,20.7,32.2,N/A,,Unknown,240,2012-10-05 05:56:00
1:56 AM,42.1,35.1,76,29.75,-9999.0,WSW,20.7,31.1,N/A,,Unknown,250,2012-10-05 06:56:00
2:56 AM,41.0,33.1,73,29.75,-9999.0,WSW,18.4,28.8,N/A,,Unknown,250,2012-10-05 07:56:00
3:56 AM,42.1,34.0,73,29.75,-9999.0,WSW,16.1,28.8,N/A,,Unknown,250,2012-10-05 08:56:00
4:56 AM,41.0,33.1,73,29.75,-9999.0,West,17.3,29.9,N/A,,Unknown,260,2012-10-05 09:56:00
5:56 AM,41.0,33.1,73,29.75,-9999.0,West,13.8,29.9,N/A,,Unknown,260,2012-10-05 10:56:00
6:56 AM,41.0,33.1,73,29.76,-9999.0,WSW,20.7,29.9,N/A,,Unknown,250,2012-10-05 11:56:00
7:56 AM,39.9,33.1,77,29.77,-9999.0,WSW,19.6,29.9,N/A,,Unknown,250,2012-10-05 12:56:00
8:56 AM,41.0,33.1,73,29.78,-9999.0,West,13.8,26.5,N/A,,Unknown,260,2012-10-05 13:56:00
9:56 AM,42.1,33.1,70,29.79,-9999.0,WSW,17.3,25.3,N/A,,Unknown,250,2012-10-05 14:56:00
10:56 AM,42.1,33.1,70,29.80,-9999.0,WSW,15.0,28.8,N/A,,Unknown,250,2012-10-05 15:56:00
11:56 AM,43.0,32.0,65,29.81,-9999.0,West,15.0,27.6,N/A,,Unknown,260,2012-10-05 16:56:00
12:56 PM,43.0,33.1,68,29.81,-9999.0,West,11.5,23.0,N/A,,Unknown,260,2012-10-05 17:56:00
1:56 PM,46.9,35.1,63,29.81,-9999.0,West,10.4,-,N/A,,Unknown,260,2012-10-05 18:56:00
2:56 PM,46.0,35.1,66,29.81,-9999.0,West,9.2,18.4,N/A,,Unknown,260,2012-10-05 19:56:00
3:56 PM,46.0,37.0,71,29.82,-9999.0,West,8.1,-,N/A,,Unknown,260,2012-10-05 20:56:00
4:56 PM,44.1,36.0,73,29.85,-9999.0,West,8.1,-,N/A,,Unknown,280,2012-10-05 21:56:00
5:56 PM,44.1,34.0,68,29.87,-9999.0,Variable,6.9,-,N/A,,Unknown,0,2012-10-05 22:56:00
6:56 PM,41.0,33.1,73,29.91,-9999.0,Variable,4.6,-,N/A,,Unknown,0,2012-10-05 23:56:00
7:56 PM,39.9,33.1,77,29.93,-9999.0,Variable,3.5,-,N/A,,Unknown,0,2012-10-06 00:56:00
8:56 PM,39.9,32.0,73,29.94,-9999.0,Calm,Calm,-,N/A,,Unknown,0,2012-10-06 01:56:00
9:56 PM,39.9,30.0,68,29.96,-9999.0,Calm,Calm,-,N/A,,Unknown,0,2012-10-06 02:56:00
10:56 PM,39.0,30.9,73,29.98,-9999.0,Calm,Calm,-,N/A,,Unknown,0,2012-10-06 03:56:00
11:56 PM,39.0,30.0,70,30.00,-9999.0,North,3.5,-,N/A,,Unknown,350,2012-10-06 04:56:00